Night Hawk — WDB7827 — position and weather

sailwx.info

Track history (hours):
 
Tides and Currents Weather Stations Pressure Air Temp Water Temp Dewpoint Dewpoint Depression Visibility Wind Speed Wind Dir Waves Ship Positions

Night Hawk

Owner: Salisbury Towing Corporation, Havre de Grace, MD. More information available from US FCC via Universal Licensing System and Coast Guard Vessel Documentation Center.

Last reported at 2018-Apr-23 14:59 UTC. Time now 2018-Apr-23 15:22 UTC.
Position N 39°34' W 076°06'.

; draft 10 m.

Type: Tug. MMSI: 366948330.

Date/timePositionNaut miles runAvg speedWind from/ knotsBaromVisibWave heightAir tempDewpointWater temp
2018-Apr-23 14:59N 39°34' W 076°06'0 0.0
2018-Apr-23 14:30N 39°34' W 076°06'0 0.0
2018-Apr-23 13:56N 39°34' W 076°06'0 0.0
2018-Apr-23 13:27N 39°34' W 076°06'0 0.0
2018-Apr-23 13:00N 39°34' W 076°06'0 0.0
2018-Apr-23 12:29N 39°34' W 076°06'0 0.0
2018-Apr-23 11:26N 39°34' W 076°06'0 0.1
2018-Apr-23 10:58N 39°34' W 076°06'0 0.1
2018-Apr-23 10:30N 39°34' W 076°06'0 0.1
2018-Apr-23 10:00N 39°34' W 076°06'0 0.0
2018-Apr-23 09:30N 39°34' W 076°06'0 0.0
2018-Apr-23 09:00N 39°34' W 076°06'0 0.0
2018-Apr-23 08:30N 39°34' W 076°06'0 0.0
2018-Apr-23 08:00N 39°34' W 076°06'0 0.0
2018-Apr-23 07:30N 39°34' W 076°06'0 0.0
2018-Apr-23 07:00N 39°34' W 076°06'0 0.7
2018-Apr-23 06:30N 39°34' W 076°06'3 7.0
2018-Apr-23 06:00N 39°31' W 076°05'4 7.0
2018-Apr-23 05:30N 39°28' W 076°03'4 7.8
2018-Apr-23 05:00N 39°24' W 076°04'4 8.5
2018-Apr-23 04:31N 39°22' W 076°09'12 8.0
2018-Apr-23 03:02N 39°12' W 076°16'0 8.0
2018-Apr-23 02:59N 39°11' W 076°17'4 8.3
2018-Apr-23 02:30N 39°08' W 076°19'5 8.9
2018-Apr-23 01:59N 39°04' W 076°21'4 9.0
2018-Apr-23 01:30N 38°60' W 076°23'4 8.6
2018-Apr-23 01:00N 38°55' W 076°25'4 8.8
2018-Apr-23 00:30N 38°51' W 076°26'1 0.0
2018-Apr-22 01:55N 38°51' W 076°26'3 7.2
2018-Apr-22 01:30N 38°54' W 076°25'4 7.5
2018-Apr-22 01:00N 38°57' W 076°24'4 7.7
2018-Apr-22 00:30N 39°01' W 076°22'4 7.4
2018-Apr-22 00:00N 39°04' W 076°21'4 7.4
2018-Apr-21 23:30N 39°08' W 076°19'4 8.1
2018-Apr-21 23:00N 39°11' W 076°17'16 8.3
2018-Apr-21 21:01N 39°24' W 076°03'0 8.1
2018-Apr-21 20:59N 39°24' W 076°03'9 3.0
2018-Apr-21 17:54N 39°33' W 076°05'3 7.0
2018-Apr-21 17:26N 39°30' W 076°05'3 7.1
2018-Apr-21 16:59N 39°28' W 076°03'3 5.8
2018-Apr-21 16:28N 39°25' W 076°03'4 8.4
2018-Apr-21 15:57N 39°22' W 076°07'15 8.7
2018-Apr-21 14:14N 39°10' W 076°18'2 9.0
2018-Apr-21 13:59N 39°08' W 076°20'4 9.0
2018-Apr-21 13:30N 39°04' W 076°21'5 9.2
2018-Apr-21 13:00N 38°60' W 076°23'4 9.0
2018-Apr-21 12:30N 38°55' W 076°24'4 8.8
2018-Apr-21 12:00N 38°51' W 076°26'119 7.9
2018-Apr-20 20:56N 36°52' W 076°20'3 7.6
2018-Apr-20 20:30N 36°50' W 076°18'3 6.3
2018-Apr-20 20:00N 36°47' W 076°18'1 1.3
2018-Apr-20 19:30N 36°46' W 076°18'2 3.3
2018-Apr-20 19:00N 36°45' W 076°18'0 0.3
2018-Apr-20 18:30N 36°44' W 076°18'0 0.0
2018-Apr-20 18:00N 36°44' W 076°18'0 0.0
2018-Apr-20 17:29N 36°44' W 076°18'0 0.0
2018-Apr-20 17:00N 36°44' W 076°18'0 0.7
2018-Apr-20 16:30N 36°45' W 076°18'3 5.8
2018-Apr-20 16:00N 36°48' W 076°18'3 5.5
2018-Apr-20 15:30N 36°50' W 076°17'0 0.0
2018-Apr-20 15:00N 36°50' W 076°17'0 0.0
2018-Apr-20 14:30N 36°50' W 076°17'0 0.0
2018-Apr-20 14:00N 36°50' W 076°17'0 0.0
2018-Apr-20 13:30N 36°50' W 076°17'0 0.0
2018-Apr-20 13:00N 36°50' W 076°17'0 0.0
2018-Apr-20 12:30N 36°50' W 076°17'0 0.0
2018-Apr-20 12:00N 36°50' W 076°17'0 0.0
2018-Apr-20 11:30N 36°50' W 076°17'0 0.0
2018-Apr-20 11:00N 36°50' W 076°17'0 0.0
2018-Apr-20 10:30N 36°50' W 076°17'0 0.0
2018-Apr-20 10:00N 36°50' W 076°17'0 0.0
2018-Apr-20 09:30N 36°50' W 076°17'0 0.0
2018-Apr-20 09:00N 36°50' W 076°17'0 0.0
2018-Apr-20 08:30N 36°50' W 076°17'0 0.0
2018-Apr-20 08:00N 36°50' W 076°17'0 0.0
2018-Apr-20 07:30N 36°50' W 076°17'0 0.0
2018-Apr-20 07:00N 36°50' W 076°17'0 0.0
2018-Apr-20 06:30N 36°50' W 076°17'0 0.0
2018-Apr-20 06:00N 36°50' W 076°17'0 0.0
2018-Apr-20 05:30N 36°50' W 076°17'0 0.0
2018-Apr-20 05:00N 36°50' W 076°17'0 0.0
2018-Apr-20 04:30N 36°50' W 076°17'0 0.0
2018-Apr-20 04:00N 36°50' W 076°17'0 0.0
2018-Apr-20 03:30N 36°50' W 076°17'0 0.0
2018-Apr-20 03:00N 36°50' W 076°17'0 0.0
2018-Apr-20 02:30N 36°50' W 076°17'0 0.0
2018-Apr-20 02:00N 36°50' W 076°17'0 0.0
2018-Apr-20 01:30N 36°50' W 076°17'0 0.0
2018-Apr-20 01:00N 36°50' W 076°17'0 0.0
2018-Apr-20 00:30N 36°50' W 076°17'0 0.0
2018-Apr-20 00:00N 36°50' W 076°17'0 0.0
2018-Apr-19 23:30N 36°50' W 076°17'0 0.0
2018-Apr-19 23:00N 36°50' W 076°17'0 0.0
2018-Apr-19 22:30N 36°50' W 076°17'1 2.4
2018-Apr-19 22:00N 36°49' W 076°17'0 0.0
2018-Apr-19 21:30N 36°49' W 076°17'0 0.1
2018-Apr-19 21:00N 36°49' W 076°17'2 4.7
2018-Apr-19 20:30N 36°50' W 076°15'0 0.0
2018-Apr-19 19:59N 36°50' W 076°15'0 0.3
2018-Apr-19 19:20N 36°50' W 076°15'2 5.9
2018-Apr-19 19:00N 36°51' W 076°17'119 7.1
2018-Apr-19 02:13N 38°49' W 076°27'2 7.2
2018-Apr-19 01:59N 38°50' W 076°26'3 7.2
2018-Apr-19 01:30N 38°54' W 076°25'4 7.1
2018-Apr-19 01:00N 38°57' W 076°24'3 6.8
2018-Apr-19 00:30N 39°00' W 076°23'3 6.7
2018-Apr-19 00:00N 39°04' W 076°22'3 6.5
2018-Apr-18 23:30N 39°07' W 076°20'3 6.8
2018-Apr-18 23:00N 39°10' W 076°19'4 7.1
2018-Apr-18 22:30N 39°13' W 076°16'15 7.4
2018-Apr-18 20:30N 39°24' W 076°03'3 6.5
2018-Apr-18 20:00N 39°27' W 076°02'3 6.6
2018-Apr-18 19:30N 39°30' W 076°05'3 5.7
2018-Apr-18 18:59N 39°33' W 076°04'1 1.6
2018-Apr-18 18:30N 39°32' W 076°05'3 6.4
2018-Apr-18 18:00N 39°29' W 076°05'3 6.5
2018-Apr-18 17:30N 39°26' W 076°02'4 7.3
2018-Apr-18 17:00N 39°23' W 076°05'4 8.1
2018-Apr-18 16:30N 39°21' W 076°10'14 8.2
2018-Apr-18 14:47N 39°12' W 076°23'2 7.8
2018-Apr-18 14:30N 39°10' W 076°24'4 8.8
2018-Apr-18 14:00N 39°05' W 076°23'4 9.0
2018-Apr-18 13:30N 39°01' W 076°23'4 8.7
2018-Apr-18 13:00N 38°57' W 076°24'4 8.7
2018-Apr-18 12:30N 38°53' W 076°26'4 8.8
2018-Apr-18 12:00N 38°48' W 076°27'116 8.4
2018-Apr-17 22:15N 36°53' W 076°20'2 8.4
2018-Apr-17 22:00N 36°51' W 076°18'2 2.6
2018-Apr-17 21:10N 36°50' W 076°16'0 2.7
2018-Apr-17 20:59N 36°50' W 076°16'1 3.1
2018-Apr-17 20:31N 36°49' W 076°17'0 0.0
2018-Apr-17 20:00N 36°49' W 076°17'0 0.0
2018-Apr-17 19:30N 36°49' W 076°17'0 0.1
2018-Apr-17 19:00N 36°49' W 076°17'1 2.3
2018-Apr-17 18:30N 36°50' W 076°17'0 0.0
2018-Apr-17 18:00N 36°50' W 076°17'0 0.0
2018-Apr-17 17:30N 36°50' W 076°17'0 0.0
2018-Apr-17 17:00N 36°50' W 076°17'2 4.6
2018-Apr-17 16:30N 36°52' W 076°19'1 0.6
2018-Apr-17 15:18N 36°53' W 076°20'3 9.5
2018-Apr-17 15:00N 36°50' W 076°18'0 0.3
2018-Apr-17 14:30N 36°50' W 076°17'0 0.0
2018-Apr-17 14:00N 36°50' W 076°17'0 0.0
2018-Apr-17 13:30N 36°50' W 076°17'0 0.0
2018-Apr-17 13:00N 36°50' W 076°17'0 0.0
2018-Apr-17 12:30N 36°50' W 076°17'0 0.0
2018-Apr-17 12:00N 36°50' W 076°17'2 3.3
2018-Apr-17 11:30N 36°49' W 076°17'2 4.5
2018-Apr-17 11:00N 36°46' W 076°18'0 0.2
2018-Apr-17 10:30N 36°46' W 076°18'2 4.2
2018-Apr-17 10:00N 36°44' W 076°18'0 0.0
2018-Apr-17 09:30N 36°44' W 076°18'0 0.4
2018-Apr-17 09:00N 36°45' W 076°18'2 3.7
2018-Apr-17 08:30N 36°46' W 076°18'1 1.9
2018-Apr-17 08:00N 36°47' W 076°18'2 3.4
2018-Apr-17 07:30N 36°49' W 076°17'3 6.2
2018-Apr-17 07:00N 36°52' W 076°19'70 6.2
2018-Apr-16 19:43N 38°02' W 076°25'2 7.0
2018-Apr-16 19:28N 38°03' W 076°26'3 6.5
2018-Apr-16 19:00N 38°05' W 076°29'3 0.1
2018-Apr-15 18:43N 38°07' W 076°33'2 8.5
2018-Apr-15 18:29N 38°06' W 076°31'4 8.4
2018-Apr-15 17:59N 38°03' W 076°26'4 8.1
2018-Apr-15 17:29N 38°01' W 076°22'49 6.7
2018-Apr-15 10:09N 38°50' W 076°26'1 6.7
2018-Apr-15 10:00N 38°51' W 076°26'3 6.7
2018-Apr-15 09:30N 38°54' W 076°25'3 6.7
2018-Apr-15 09:00N 38°57' W 076°24'31 7.5
2018-Apr-15 04:49N 39°24' W 076°03'2 7.3
2018-Apr-15 04:30N 39°26' W 076°02'3 6.9
2018-Apr-15 04:01N 39°29' W 076°05'4 7.0
2018-Apr-15 03:30N 39°33' W 076°05'2 3.7
2018-Apr-15 03:01N 39°34' W 076°06'0 0.6
2018-Apr-15 02:29N 39°34' W 076°06'2 4.1
2018-Apr-15 02:01N 39°33' W 076°05'3 5.9
2018-Apr-15 01:30N 39°30' W 076°05'4 7.3
2018-Apr-15 01:00N 39°27' W 076°02'4 8.0
2018-Apr-15 00:30N 39°24' W 076°05'5 9.5
2018-Apr-15 00:00N 39°21' W 076°10'149 8.1
2018-Apr-14 05:35N 36°52' W 076°20'1 7.5
2018-Apr-14 05:30N 36°52' W 076°19'3 6.8
2018-Apr-14 05:00N 36°50' W 076°16'0 0.7
2018-Apr-14 04:30N 36°50' W 076°15'0 0.3
2018-Apr-14 03:35N 36°50' W 076°15'1 7.7
2018-Apr-14 03:28N 36°50' W 076°16'0 1.1
2018-Apr-14 03:01N 36°50' W 076°17'1 1.8
2018-Apr-14 02:17N 36°50' W 076°15'1 2.4
2018-Apr-14 02:00N 36°50' W 076°16'0 0.2
2018-Apr-14 01:29N 36°50' W 076°16'1 3.0
2018-Apr-14 01:00N 36°51' W 076°17'3 6.2
2018-Apr-14 00:31N 36°47' W 076°18'2 3.1
2018-Apr-14 00:00N 36°46' W 076°18'1 1.8
2018-Apr-13 23:30N 36°45' W 076°18'1 1.5
2018-Apr-13 23:01N 36°46' W 076°18'3 6.2
2018-Apr-13 22:30N 36°49' W 076°17'2 3.4
2018-Apr-13 22:00N 36°50' W 076°16'0 0.8
2018-Apr-13 21:24N 36°50' W 076°16'1 2.4
2018-Apr-13 21:00N 36°50' W 076°17'3 6.6
2018-Apr-13 20:29N 36°53' W 076°20'1 0.2
2018-Apr-13 18:06N 36°52' W 076°20'1 8.2
2018-Apr-13 17:58N 36°52' W 076°19'3 5.2
2018-Apr-13 17:26N 36°50' W 076°16'0 0.2
2018-Apr-13 16:50N 36°50' W 076°16'1 4.6
2018-Apr-13 16:30N 36°50' W 076°18'1 2.2
2018-Apr-13 16:00N 36°49' W 076°17'0 0.0
2018-Apr-13 15:30N 36°49' W 076°17'0 0.0
2018-Apr-13 15:00N 36°49' W 076°17'  
Track history (hours):
 
Tides and Currents Weather Stations Pressure Air Temp Water Temp Dewpoint Dewpoint Depression Visibility Wind Speed Wind Dir Waves Ship Positions

Night Hawk

Owner: Salisbury Towing Corporation, Havre de Grace, MD. More information available from US FCC via Universal Licensing System and Coast Guard Vessel Documentation Center.

Last reported at 2018-Apr-23 14:59 UTC. Time now 2018-Apr-23 15:22 UTC.
Position N 39°34' W 076°06'.

; draft 10 m.

Type: Tug. MMSI: 366948330.

Date/timePositionNaut miles runAvg speedWind from/ knotsBaromVisibWave heightAir tempDewpointWater temp
2018-Apr-23 14:59N 39°34' W 076°06'0 0.0
2018-Apr-23 14:30N 39°34' W 076°06'0 0.0
2018-Apr-23 13:56N 39°34' W 076°06'0 0.0
2018-Apr-23 13:27N 39°34' W 076°06'0 0.0
2018-Apr-23 13:00N 39°34' W 076°06'0 0.0
2018-Apr-23 12:29N 39°34' W 076°06'0 0.0
2018-Apr-23 11:26N 39°34' W 076°06'0 0.1
2018-Apr-23 10:58N 39°34' W 076°06'0 0.1
2018-Apr-23 10:30N 39°34' W 076°06'0 0.1
2018-Apr-23 10:00N 39°34' W 076°06'0 0.0
2018-Apr-23 09:30N 39°34' W 076°06'0 0.0
2018-Apr-23 09:00N 39°34' W 076°06'0 0.0
2018-Apr-23 08:30N 39°34' W 076°06'0 0.0
2018-Apr-23 08:00N 39°34' W 076°06'0 0.0
2018-Apr-23 07:30N 39°34' W 076°06'0 0.0
2018-Apr-23 07:00N 39°34' W 076°06'0 0.7
2018-Apr-23 06:30N 39°34' W 076°06'3 7.0
2018-Apr-23 06:00N 39°31' W 076°05'4 7.0
2018-Apr-23 05:30N 39°28' W 076°03'4 7.8
2018-Apr-23 05:00N 39°24' W 076°04'4 8.5
2018-Apr-23 04:31N 39°22' W 076°09'12 8.0
2018-Apr-23 03:02N 39°12' W 076°16'0 8.0
2018-Apr-23 02:59N 39°11' W 076°17'4 8.3
2018-Apr-23 02:30N 39°08' W 076°19'5 8.9
2018-Apr-23 01:59N 39°04' W 076°21'4 9.0
2018-Apr-23 01:30N 38°60' W 076°23'4 8.6
2018-Apr-23 01:00N 38°55' W 076°25'4 8.8
2018-Apr-23 00:30N 38°51' W 076°26'1 0.0
2018-Apr-22 01:55N 38°51' W 076°26'3 7.2
2018-Apr-22 01:30N 38°54' W 076°25'4 7.5
2018-Apr-22 01:00N 38°57' W 076°24'4 7.7
2018-Apr-22 00:30N 39°01' W 076°22'4 7.4
2018-Apr-22 00:00N 39°04' W 076°21'4 7.4
2018-Apr-21 23:30N 39°08' W 076°19'4 8.1
2018-Apr-21 23:00N 39°11' W 076°17'16 8.3
2018-Apr-21 21:01N 39°24' W 076°03'0 8.1
2018-Apr-21 20:59N 39°24' W 076°03'9 3.0
2018-Apr-21 17:54N 39°33' W 076°05'3 7.0
2018-Apr-21 17:26N 39°30' W 076°05'3 7.1
2018-Apr-21 16:59N 39°28' W 076°03'3 5.8
2018-Apr-21 16:28N 39°25' W 076°03'4 8.4
2018-Apr-21 15:57N 39°22' W 076°07'15 8.7
2018-Apr-21 14:14N 39°10' W 076°18'2 9.0
2018-Apr-21 13:59N 39°08' W 076°20'4 9.0
2018-Apr-21 13:30N 39°04' W 076°21'5 9.2
2018-Apr-21 13:00N 38°60' W 076°23'4 9.0
2018-Apr-21 12:30N 38°55' W 076°24'4 8.8
2018-Apr-21 12:00N 38°51' W 076°26'119 7.9
2018-Apr-20 20:56N 36°52' W 076°20'3 7.6
2018-Apr-20 20:30N 36°50' W 076°18'3 6.3
2018-Apr-20 20:00N 36°47' W 076°18'1 1.3
2018-Apr-20 19:30N 36°46' W 076°18'2 3.3
2018-Apr-20 19:00N 36°45' W 076°18'0 0.3
2018-Apr-20 18:30N 36°44' W 076°18'0 0.0
2018-Apr-20 18:00N 36°44' W 076°18'0 0.0
2018-Apr-20 17:29N 36°44' W 076°18'0 0.0
2018-Apr-20 17:00N 36°44' W 076°18'0 0.7
2018-Apr-20 16:30N 36°45' W 076°18'3 5.8
2018-Apr-20 16:00N 36°48' W 076°18'3 5.5
2018-Apr-20 15:30N 36°50' W 076°17'0 0.0
2018-Apr-20 15:00N 36°50' W 076°17'0 0.0
2018-Apr-20 14:30N 36°50' W 076°17'0 0.0
2018-Apr-20 14:00N 36°50' W 076°17'0 0.0
2018-Apr-20 13:30N 36°50' W 076°17'0 0.0
2018-Apr-20 13:00N 36°50' W 076°17'0 0.0
2018-Apr-20 12:30N 36°50' W 076°17'0 0.0
2018-Apr-20 12:00N 36°50' W 076°17'0 0.0
2018-Apr-20 11:30N 36°50' W 076°17'0 0.0
2018-Apr-20 11:00N 36°50' W 076°17'0 0.0
2018-Apr-20 10:30N 36°50' W 076°17'0 0.0
2018-Apr-20 10:00N 36°50' W 076°17'0 0.0
2018-Apr-20 09:30N 36°50' W 076°17'0 0.0
2018-Apr-20 09:00N 36°50' W 076°17'0 0.0
2018-Apr-20 08:30N 36°50' W 076°17'0 0.0
2018-Apr-20 08:00N 36°50' W 076°17'0 0.0
2018-Apr-20 07:30N 36°50' W 076°17'0 0.0
2018-Apr-20 07:00N 36°50' W 076°17'0 0.0
2018-Apr-20 06:30N 36°50' W 076°17'0 0.0
2018-Apr-20 06:00N 36°50' W 076°17'0 0.0
2018-Apr-20 05:30N 36°50' W 076°17'0 0.0
2018-Apr-20 05:00N 36°50' W 076°17'0 0.0
2018-Apr-20 04:30N 36°50' W 076°17'0 0.0
2018-Apr-20 04:00N 36°50' W 076°17'0 0.0
2018-Apr-20 03:30N 36°50' W 076°17'0 0.0
2018-Apr-20 03:00N 36°50' W 076°17'0 0.0
2018-Apr-20 02:30N 36°50' W 076°17'0 0.0
2018-Apr-20 02:00N 36°50' W 076°17'0 0.0
2018-Apr-20 01:30N 36°50' W 076°17'0 0.0
2018-Apr-20 01:00N 36°50' W 076°17'0 0.0
2018-Apr-20 00:30N 36°50' W 076°17'0 0.0
2018-Apr-20 00:00N 36°50' W 076°17'0 0.0
2018-Apr-19 23:30N 36°50' W 076°17'0 0.0
2018-Apr-19 23:00N 36°50' W 076°17'0 0.0
2018-Apr-19 22:30N 36°50' W 076°17'1 2.4
2018-Apr-19 22:00N 36°49' W 076°17'0 0.0
2018-Apr-19 21:30N 36°49' W 076°17'0 0.1
2018-Apr-19 21:00N 36°49' W 076°17'2 4.7
2018-Apr-19 20:30N 36°50' W 076°15'0 0.0
2018-Apr-19 19:59N 36°50' W 076°15'0 0.3
2018-Apr-19 19:20N 36°50' W 076°15'2 5.9
2018-Apr-19 19:00N 36°51' W 076°17'119 7.1
2018-Apr-19 02:13N 38°49' W 076°27'2 7.2
2018-Apr-19 01:59N 38°50' W 076°26'3 7.2
2018-Apr-19 01:30N 38°54' W 076°25'4 7.1
2018-Apr-19 01:00N 38°57' W 076°24'3 6.8
2018-Apr-19 00:30N 39°00' W 076°23'3 6.7
2018-Apr-19 00:00N 39°04' W 076°22'3 6.5
2018-Apr-18 23:30N 39°07' W 076°20'3 6.8
2018-Apr-18 23:00N 39°10' W 076°19'4 7.1
2018-Apr-18 22:30N 39°13' W 076°16'15 7.4
2018-Apr-18 20:30N 39°24' W 076°03'3 6.5
2018-Apr-18 20:00N 39°27' W 076°02'3 6.6
2018-Apr-18 19:30N 39°30' W 076°05'3 5.7
2018-Apr-18 18:59N 39°33' W 076°04'1 1.6
2018-Apr-18 18:30N 39°32' W 076°05'3 6.4
2018-Apr-18 18:00N 39°29' W 076°05'3 6.5
2018-Apr-18 17:30N 39°26' W 076°02'4 7.3
2018-Apr-18 17:00N 39°23' W 076°05'4 8.1
2018-Apr-18 16:30N 39°21' W 076°10'14 8.2
2018-Apr-18 14:47N 39°12' W 076°23'2 7.8
2018-Apr-18 14:30N 39°10' W 076°24'4 8.8
2018-Apr-18 14:00N 39°05' W 076°23'4 9.0
2018-Apr-18 13:30N 39°01' W 076°23'4 8.7
2018-Apr-18 13:00N 38°57' W 076°24'4 8.7
2018-Apr-18 12:30N 38°53' W 076°26'4 8.8
2018-Apr-18 12:00N 38°48' W 076°27'116 8.4
2018-Apr-17 22:15N 36°53' W 076°20'2 8.4
2018-Apr-17 22:00N 36°51' W 076°18'2 2.6
2018-Apr-17 21:10N 36°50' W 076°16'0 2.7
2018-Apr-17 20:59N 36°50' W 076°16'1 3.1
2018-Apr-17 20:31N 36°49' W 076°17'0 0.0
2018-Apr-17 20:00N 36°49' W 076°17'0 0.0
2018-Apr-17 19:30N 36°49' W 076°17'0 0.1
2018-Apr-17 19:00N 36°49' W 076°17'1 2.3
2018-Apr-17 18:30N 36°50' W 076°17'0 0.0
2018-Apr-17 18:00N 36°50' W 076°17'0 0.0
2018-Apr-17 17:30N 36°50' W 076°17'0 0.0
2018-Apr-17 17:00N 36°50' W 076°17'2 4.6
2018-Apr-17 16:30N 36°52' W 076°19'1 0.6
2018-Apr-17 15:18N 36°53' W 076°20'3 9.5
2018-Apr-17 15:00N 36°50' W 076°18'0 0.3
2018-Apr-17 14:30N 36°50' W 076°17'0 0.0
2018-Apr-17 14:00N 36°50' W 076°17'0 0.0
2018-Apr-17 13:30N 36°50' W 076°17'0 0.0
2018-Apr-17 13:00N 36°50' W 076°17'0 0.0
2018-Apr-17 12:30N 36°50' W 076°17'0 0.0
2018-Apr-17 12:00N 36°50' W 076°17'2 3.3
2018-Apr-17 11:30N 36°49' W 076°17'2 4.5
2018-Apr-17 11:00N 36°46' W 076°18'0 0.2
2018-Apr-17 10:30N 36°46' W 076°18'2 4.2
2018-Apr-17 10:00N 36°44' W 076°18'0 0.0
2018-Apr-17 09:30N 36°44' W 076°18'0 0.4
2018-Apr-17 09:00N 36°45' W 076°18'2 3.7
2018-Apr-17 08:30N 36°46' W 076°18'1 1.9
2018-Apr-17 08:00N 36°47' W 076°18'2 3.4
2018-Apr-17 07:30N 36°49' W 076°17'3 6.2
2018-Apr-17 07:00N 36°52' W 076°19'70 6.2
2018-Apr-16 19:43N 38°02' W 076°25'2 7.0
2018-Apr-16 19:28N 38°03' W 076°26'3 6.5
2018-Apr-16 19:00N 38°05' W 076°29'3 0.1
2018-Apr-15 18:43N 38°07' W 076°33'2 8.5
2018-Apr-15 18:29N 38°06' W 076°31'4 8.4
2018-Apr-15 17:59N 38°03' W 076°26'4 8.1
2018-Apr-15 17:29N 38°01' W 076°22'49 6.7
2018-Apr-15 10:09N 38°50' W 076°26'1 6.7
2018-Apr-15 10:00N 38°51' W 076°26'3 6.7
2018-Apr-15 09:30N 38°54' W 076°25'3 6.7
2018-Apr-15 09:00N 38°57' W 076°24'31 7.5
2018-Apr-15 04:49N 39°24' W 076°03'2 7.3
2018-Apr-15 04:30N 39°26' W 076°02'3 6.9
2018-Apr-15 04:01N 39°29' W 076°05'4 7.0
2018-Apr-15 03:30N 39°33' W 076°05'2 3.7
2018-Apr-15 03:01N 39°34' W 076°06'0 0.6
2018-Apr-15 02:29N 39°34' W 076°06'2 4.1
2018-Apr-15 02:01N 39°33' W 076°05'3 5.9
2018-Apr-15 01:30N 39°30' W 076°05'4 7.3
2018-Apr-15 01:00N 39°27' W 076°02'4 8.0
2018-Apr-15 00:30N 39°24' W 076°05'5 9.5
2018-Apr-15 00:00N 39°21' W 076°10'149 8.1
2018-Apr-14 05:35N 36°52' W 076°20'1 7.5
2018-Apr-14 05:30N 36°52' W 076°19'3 6.8
2018-Apr-14 05:00N 36°50' W 076°16'0 0.7
2018-Apr-14 04:30N 36°50' W 076°15'0 0.3
2018-Apr-14 03:35N 36°50' W 076°15'1 7.7
2018-Apr-14 03:28N 36°50' W 076°16'0 1.1
2018-Apr-14 03:01N 36°50' W 076°17'1 1.8
2018-Apr-14 02:17N 36°50' W 076°15'1 2.4
2018-Apr-14 02:00N 36°50' W 076°16'0 0.2
2018-Apr-14 01:29N 36°50' W 076°16'1 3.0
2018-Apr-14 01:00N 36°51' W 076°17'3 6.2
2018-Apr-14 00:31N 36°47' W 076°18'2 3.1
2018-Apr-14 00:00N 36°46' W 076°18'1 1.8
2018-Apr-13 23:30N 36°45' W 076°18'1 1.5
2018-Apr-13 23:01N 36°46' W 076°18'3 6.2
2018-Apr-13 22:30N 36°49' W 076°17'2 3.4
2018-Apr-13 22:00N 36°50' W 076°16'0 0.8
2018-Apr-13 21:24N 36°50' W 076°16'1 2.4
2018-Apr-13 21:00N 36°50' W 076°17'3 6.6
2018-Apr-13 20:29N 36°53' W 076°20'1 0.2
2018-Apr-13 18:06N 36°52' W 076°20'1 8.2
2018-Apr-13 17:58N 36°52' W 076°19'3 5.2
2018-Apr-13 17:26N 36°50' W 076°16'0 0.2
2018-Apr-13 16:50N 36°50' W 076°16'1 4.6
2018-Apr-13 16:30N 36°50' W 076°18'1 2.2
2018-Apr-13 16:00N 36°49' W 076°17'0 0.0
2018-Apr-13 15:30N 36°49' W 076°17'0 0.0
2018-Apr-13 15:00N 36°49' W 076°17'  

Dump ship's entire track history